Time;durP1;ratioP1;P1;durP2;ratioP2;P2;SDS_P1;SDS_P2;PMS_P1;PMS_P2;Temp;Humidity;BMP_temperature;BMP_pressure;BME280_temperature;BME280_humidity;BME280_pressure;Samples;Min_cycle;Max_cycle;Signal;HPM_P1;HPM_P2
2021/03/11 00:02:17;;;;;;;3.00;1.70;;;;;;;;;;5061094;28;20403;-70
2021/03/11 00:04:44;;;;;;;0.80;0.70;;;;;;;;;;5068046;28;20419;-69
2021/03/11 00:07:10;;;;;;;1.47;1.37;;;;;;;;;;5068641;28;20403;-70
2021/03/11 00:09:36;;;;;;;1.73;0.70;;;;;;;;;;5067738;28;20399;-70
2021/03/11 00:12:02;;;;;;;1.63;1.53;;;;;;;;;;5068894;28;20413;-70
2021/03/11 00:14:28;;;;;;;1.07;0.97;;;;;;;;;;5067711;28;20419;-70
2021/03/11 00:16:54;;;;;;;5.30;1.10;;;;;;;;;;5065668;28;20398;-70
2021/03/11 00:19:20;;;;;;;1.17;1.07;;;;;;;;;;5066005;28;20426;-69
2021/03/11 00:21:46;;;;;;;0.80;0.70;;;;;;;;;;5054446;28;20557;-69
2021/03/11 00:24:12;;;;;;;1.47;1.37;;;;;;;;;;5051507;28;20498;-70
2021/03/11 00:26:38;;;;;;;5.70;2.20;;;;;;;;;;5052366;28;20415;-70
2021/03/11 00:29:04;;;;;;;1.43;1.33;;;;;;;;;;5052408;28;20492;-69
2021/03/11 00:31:30;;;;;;;1.43;1.30;;;;;;;;;;5047694;28;20449;-69
2021/03/11 00:33:56;;;;;;;1.17;0.80;;;;;;;;;;5071549;28;20861;-70
2021/03/11 00:36:22;;;;;;;4.43;1.43;;;;;;;;;;5072382;28;20462;-70
2021/03/11 00:38:48;;;;;;;6.33;1.77;;;;;;;;;;5072018;28;20439;-69
2021/03/11 00:41:14;;;;;;;3.63;1.07;;;;;;;;;;5072195;28;20450;-70
2021/03/11 00:43:40;;;;;;;0.70;0.50;;;;;;;;;;5071516;28;20412;-70
2021/03/11 00:46:06;;;;;;;2.20;1.23;;;;;;;;;;5072301;28;20585;-70
2021/03/11 00:48:31;;;;;;;1.43;1.33;;;;;;;;;;5071849;28;20467;-69
2021/03/11 00:50:57;;;;;;;4.47;0.80;;;;;;;;;;5071885;28;20633;-69
2021/03/11 00:53:23;;;;;;;1.23;1.10;;;;;;;;;;5071301;28;20896;-70
2021/03/11 00:55:49;;;;;;;1.37;1.17;;;;;;;;;;5071948;28;20428;-70
2021/03/11 00:58:15;;;;;;;2.87;1.70;;;;;;;;;;5070805;28;20417;-70
2021/03/11 01:00:41;;;;;;;1.73;1.33;;;;;;;;;;5071296;28;20543;-70
2021/03/11 01:03:07;;;;;;;3.13;0.90;;;;;;;;;;5068967;28;20839;-70
2021/03/11 01:05:35;;;;;;;6.80;1.77;;;;;;;;;;5051567;28;20435;-70
2021/03/11 01:08:01;;;;;;;3.23;1.27;;;;;;;;;;5051587;28;20969;-70
2021/03/11 01:10:27;;;;;;;1.37;1.27;;;;;;;;;;5051532;28;20513;-69
2021/03/11 01:12:53;;;;;;;3.20;1.10;;;;;;;;;;5051154;28;20445;-69
2021/03/11 01:15:19;;;;;;;2.47;1.00;;;;;;;;;;5051136;28;20426;-69
2021/03/11 01:17:45;;;;;;;0.90;0.83;;;;;;;;;;5051163;28;20414;-69
2021/03/11 01:20:13;;;;;;;1.60;1.40;;;;;;;;;;5033091;28;20956;-70
2021/03/11 01:22:39;;;;;;;1.00;0.50;;;;;;;;;;5051373;28;20754;-69
2021/03/11 01:25:06;;;;;;;3.17;0.90;;;;;;;;;;5051091;28;20496;-70
2021/03/11 01:27:32;;;;;;;4.37;1.50;;;;;;;;;;5053059;28;20410;-70
2021/03/11 01:29:58;;;;;;;12.73;2.33;;;;;;;;;;5070733;28;20436;-70
2021/03/11 01:32:24;;;;;;;0.80;0.60;;;;;;;;;;5051263;28;20403;-70
2021/03/11 01:34:50;;;;;;;8.97;1.10;;;;;;;;;;5050534;28;20430;-69
2021/03/11 01:37:16;;;;;;;6.30;1.33;;;;;;;;;;5051351;28;20901;-70
2021/03/11 01:39:42;;;;;;;1.50;1.40;;;;;;;;;;5051042;28;20905;-70
2021/03/11 01:42:08;;;;;;;2.80;2.00;;;;;;;;;;5050639;28;20409;-70
2021/03/11 01:44:34;;;;;;;3.63;0.90;;;;;;;;;;5030695;28;20438;-70
2021/03/11 01:47:00;;;;;;;3.27;1.43;;;;;;;;;;5050903;28;20406;-70
2021/03/11 01:49:26;;;;;;;0.80;0.80;;;;;;;;;;5050417;28;20761;-69
2021/03/11 01:51:53;;;;;;;3.63;1.60;;;;;;;;;;5050194;28;20413;-69
2021/03/11 01:54:19;;;;;;;1.20;1.00;;;;;;;;;;5048829;28;20445;-69
2021/03/11 01:56:45;;;;;;;2.60;1.70;;;;;;;;;;5051049;28;20420;-69
2021/03/11 02:01:47;;;;;;;6.10;1.00;;;;;;;;;;3362439;26;20513;-75
2021/03/11 02:04:13;;;;;;;4.10;1.60;;;;;;;;;;5062431;22;20526;-68
2021/03/11 02:06:39;;;;;;;3.13;1.60;;;;;;;;;;5051226;28;20430;-68
2021/03/11 02:09:05;;;;;;;1.40;1.33;;;;;;;;;;5051118;28;20403;-69
2021/03/11 02:11:32;;;;;;;1.53;0.90;;;;;;;;;;5057317;28;20426;-68
2021/03/11 02:14:16;;;;;;;5.70;1.97;;;;;;;;;;5071510;28;20496;-68
2021/03/11 02:16:55;;;;;;;1.47;1.17;;;;;;;;;;5071220;28;20397;-69
2021/03/11 02:19:42;;;;;;;0.97;0.90;;;;;;;;;;5071045;28;20795;-69
2021/03/11 02:22:27;;;;;;;1.93;1.43;;;;;;;;;;5067921;28;20430;-68
2021/03/11 02:25:04;;;;;;;5.47;3.83;;;;;;;;;;5069042;28;20756;-67
2021/03/11 02:27:49;;;;;;;3.77;1.80;;;;;;;;;;5067183;28;20433;-68
2021/03/11 02:30:16;;;;;;;1.10;0.80;;;;;;;;;;5063705;28;20409;-68
2021/03/11 02:32:43;;;;;;;2.20;1.70;;;;;;;;;;5070885;28;20919;-69
2021/03/11 02:35:11;;;;;;;0.87;0.70;;;;;;;;;;5071142;28;20407;-67
2021/03/11 02:37:40;;;;;;;4.70;1.47;;;;;;;;;;5071181;28;20402;-69
2021/03/11 02:40:09;;;;;;;2.73;2.50;;;;;;;;;;5070821;28;20434;-69
2021/03/11 02:42:35;;;;;;;0.80;0.60;;;;;;;;;;5070227;28;20414;-69
2021/03/11 02:45:02;;;;;;;3.83;1.03;;;;;;;;;;5067371;28;20844;-70
2021/03/11 02:47:29;;;;;;;0.80;0.73;;;;;;;;;;5066427;28;20414;-68
2021/03/11 02:49:55;;;;;;;1.90;1.80;;;;;;;;;;5068415;28;20405;-68
2021/03/11 02:52:21;;;;;;;0.80;0.57;;;;;;;;;;5068092;28;20428;-69
2021/03/11 02:54:48;;;;;;;3.33;1.27;;;;;;;;;;5067665;28;20409;-69
2021/03/11 02:57:16;;;;;;;0.80;0.70;;;;;;;;;;5064280;28;20415;-69
2021/03/11 02:59:43;;;;;;;0.70;0.57;;;;;;;;;;5067164;28;20922;-69
2021/03/11 03:02:09;;;;;;;1.83;1.70;;;;;;;;;;5068007;28;20486;-69
2021/03/11 03:04:36;;;;;;;0.83;0.70;;;;;;;;;;5069980;28;20421;-70
2021/03/11 03:07:02;;;;;;;6.73;1.13;;;;;;;;;;5049638;28;20411;-69
2021/03/11 03:09:28;;;;;;;0.80;0.70;;;;;;;;;;5069306;28;20840;-70
2021/03/11 03:11:55;;;;;;;0.80;0.70;;;;;;;;;;5069567;28;20453;-70
2021/03/11 03:14:21;;;;;;;0.80;0.60;;;;;;;;;;5050858;28;21328;-69
2021/03/11 03:16:48;;;;;;;1.10;0.87;;;;;;;;;;5062750;28;20446;-69
2021/03/11 03:19:14;;;;;;;0.87;0.60;;;;;;;;;;5069124;28;20413;-69
2021/03/11 03:21:44;;;;;;;7.20;2.10;;;;;;;;;;5067594;28;20995;-69
2021/03/11 03:24:11;;;;;;;1.27;1.17;;;;;;;;;;5056208;28;20425;-69
2021/03/11 03:26:37;;;;;;;1.63;1.33;;;;;;;;;;5073764;28;20886;-68
2021/03/11 03:29:04;;;;;;;1.10;0.73;;;;;;;;;;5073595;28;20397;-68
2021/03/11 03:31:30;;;;;;;1.53;1.30;;;;;;;;;;5073715;28;20436;-68
2021/03/11 03:33:56;;;;;;;0.80;0.73;;;;;;;;;;5073598;28;20406;-69
2021/03/11 03:36:22;;;;;;;0.80;0.63;;;;;;;;;;5073366;28;20419;-68
2021/03/11 03:38:48;;;;;;;3.00;1.63;;;;;;;;;;5073621;28;20432;-68
2021/03/11 03:41:14;;;;;;;0.97;0.77;;;;;;;;;;5073588;28;20552;-69
2021/03/11 03:43:41;;;;;;;0.93;0.83;;;;;;;;;;5073597;28;20408;-69
2021/03/11 03:46:09;;;;;;;3.30;1.07;;;;;;;;;;5073597;28;20561;-69
2021/03/11 03:48:47;;;;;;;3.47;2.47;;;;;;;;;;5055609;28;20449;-69
2021/03/11 03:51:14;;;;;;;0.77;0.63;;;;;;;;;;5073016;28;20432;-68
2021/03/11 03:53:41;;;;;;;1.37;0.80;;;;;;;;;;5073249;28;20767;-69
2021/03/11 03:56:17;;;;;;;0.83;0.70;;;;;;;;;;5073634;28;20459;-69
2021/03/11 03:58:44;;;;;;;1.30;0.93;;;;;;;;;;5073189;28;20405;-69
2021/03/11 04:01:10;;;;;;;1.43;1.30;;;;;;;;;;5072841;28;20465;-69
2021/03/11 04:03:38;;;;;;;1.00;0.83;;;;;;;;;;5073076;28;20476;-67
2021/03/11 04:06:04;;;;;;;2.27;1.50;;;;;;;;;;5073252;28;20429;-69
2021/03/11 04:08:31;;;;;;;0.90;0.70;;;;;;;;;;5072945;28;20818;-68
2021/03/11 04:10:57;;;;;;;0.80;0.57;;;;;;;;;;5072615;28;20441;-68
2021/03/11 04:13:24;;;;;;;3.77;2.73;;;;;;;;;;5072815;28;20410;-68
2021/03/11 04:15:50;;;;;;;0.73;0.67;;;;;;;;;;5073249;28;20764;-69
2021/03/11 04:18:17;;;;;;;1.10;0.93;;;;;;;;;;5072891;28;20406;-69
2021/03/11 04:20:44;;;;;;;0.80;0.60;;;;;;;;;;5072572;28;20536;-67
2021/03/11 04:23:10;;;;;;;1.07;0.70;;;;;;;;;;5073175;28;20406;-68
2021/03/11 04:25:36;;;;;;;0.90;0.60;;;;;;;;;;5072930;28;20756;-68
2021/03/11 04:28:02;;;;;;;2.27;1.07;;;;;;;;;;5072678;28;20405;-66
2021/03/11 04:30:28;;;;;;;2.43;1.23;;;;;;;;;;5072630;28;20405;-69
2021/03/11 04:32:54;;;;;;;1.77;0.83;;;;;;;;;;5071966;28;20828;-68
2021/03/11 04:35:20;;;;;;;0.93;0.83;;;;;;;;;;5071890;28;20449;-69
2021/03/11 04:37:46;;;;;;;0.80;0.63;;;;;;;;;;5072433;28;20889;-69
2021/03/11 04:40:12;;;;;;;0.90;0.90;;;;;;;;;;5072122;28;20851;-68
2021/03/11 04:42:38;;;;;;;0.90;0.80;;;;;;;;;;5072003;28;20445;-67
2021/03/11 04:45:05;;;;;;;1.33;1.23;;;;;;;;;;5072168;28;20392;-68
2021/03/11 04:47:33;;;;;;;1.53;1.27;;;;;;;;;;5072047;28;20393;-67
2021/03/11 04:50:00;;;;;;;1.03;0.90;;;;;;;;;;5072058;28;20411;-68
2021/03/11 04:52:26;;;;;;;0.80;0.50;;;;;;;;;;5071833;28;20490;-69
2021/03/11 04:54:53;;;;;;;1.37;1.23;;;;;;;;;;5053897;28;20409;-68
2021/03/11 04:57:19;;;;;;;0.80;0.60;;;;;;;;;;5071955;28;20401;-68
2021/03/11 04:59:45;;;;;;;0.90;0.90;;;;;;;;;;5072327;28;20409;-70
2021/03/11 05:02:11;;;;;;;0.80;0.67;;;;;;;;;;5054789;28;20549;-69
2021/03/11 05:04:37;;;;;;;4.93;1.70;;;;;;;;;;5072960;28;20414;-68
2021/03/11 05:07:03;;;;;;;2.93;1.57;;;;;;;;;;5072781;28;20873;-69
2021/03/11 05:09:29;;;;;;;5.23;1.30;;;;;;;;;;5072840;28;20938;-69
2021/03/11 05:11:55;;;;;;;9.03;2.37;;;;;;;;;;5072423;28;20555;-69
2021/03/11 05:14:21;;;;;;;0.80;0.80;;;;;;;;;;5072851;28;20456;-68
2021/03/11 05:16:47;;;;;;;2.30;1.17;;;;;;;;;;5073749;28;20394;-69
2021/03/11 05:19:13;;;;;;;1.90;1.80;;;;;;;;;;5073056;28;20401;-69
2021/03/11 05:21:39;;;;;;;1.13;1.03;;;;;;;;;;5071896;28;20552;-68
2021/03/11 05:24:05;;;;;;;0.80;0.70;;;;;;;;;;5072816;28;20969;-69
2021/03/11 05:26:31;;;;;;;1.50;1.23;;;;;;;;;;5072602;28;20406;-69
2021/03/11 05:28:57;;;;;;;0.70;0.50;;;;;;;;;;5072320;28;21118;-68
2021/03/11 05:31:23;;;;;;;1.20;1.03;;;;;;;;;;5071765;28;20489;-67
2021/03/11 05:33:49;;;;;;;5.40;3.53;;;;;;;;;;5071704;28;20459;-68
2021/03/11 05:36:15;;;;;;;0.97;0.87;;;;;;;;;;5071148;28;20409;-67
2021/03/11 05:38:45;;;;;;;0.70;0.70;;;;;;;;;;5051714;28;20407;-69
2021/03/11 05:41:12;;;;;;;1.23;1.13;;;;;;;;;;5070590;28;20532;-68
2021/03/11 05:43:38;;;;;;;0.80;0.60;;;;;;;;;;5070966;28;20403;-68
2021/03/11 05:46:04;;;;;;;0.87;0.87;;;;;;;;;;5068962;28;20399;-70
2021/03/11 05:48:33;;;;;;;1.40;1.30;;;;;;;;;;5071788;28;20874;-69
2021/03/11 05:50:59;;;;;;;1.60;1.50;;;;;;;;;;5069159;28;20927;-70
2021/03/11 05:53:25;;;;;;;13.00;1.03;;;;;;;;;;5052466;28;20504;-69
2021/03/11 05:55:51;;;;;;;1.20;0.90;;;;;;;;;;5071875;28;20445;-68
2021/03/11 05:58:20;;;;;;;1.07;0.57;;;;;;;;;;5072036;28;20456;-69
2021/03/11 06:00:46;;;;;;;1.00;0.80;;;;;;;;;;5071660;28;20442;-68
2021/03/11 06:03:12;;;;;;;1.33;0.80;;;;;;;;;;5071780;28;20467;-68
2021/03/11 06:05:38;;;;;;;0.70;0.50;;;;;;;;;;5071154;28;20410;-68
2021/03/11 06:08:06;;;;;;;1.43;1.17;;;;;;;;;;5070601;28;20462;-69
2021/03/11 06:10:32;;;;;;;1.40;1.13;;;;;;;;;;5070338;28;20433;-70
2021/03/11 06:12:58;;;;;;;4.10;1.80;;;;;;;;;;5070672;28;20409;-69
2021/03/11 06:15:30;;;;;;;2.00;1.80;;;;;;;;;;5070293;28;20923;-68
2021/03/11 06:17:56;;;;;;;0.70;0.60;;;;;;;;;;5067623;28;20424;-68
2021/03/11 06:20:22;;;;;;;0.80;0.67;;;;;;;;;;5069570;28;20549;-68
2021/03/11 06:22:48;;;;;;;1.30;1.20;;;;;;;;;;5069848;28;20456;-69
2021/03/11 06:25:15;;;;;;;1.27;0.90;;;;;;;;;;5067430;28;20438;-70
2021/03/11 06:27:41;;;;;;;4.03;0.97;;;;;;;;;;5070585;28;20404;-69
2021/03/11 06:30:08;;;;;;;1.87;0.60;;;;;;;;;;5062386;28;20445;-68
2021/03/11 06:32:52;;;;;;;1.40;1.30;;;;;;;;;;5069321;28;20448;-67
2021/03/11 06:35:21;;;;;;;4.40;2.10;;;;;;;;;;5070384;28;20536;-67
2021/03/11 06:37:50;;;;;;;0.80;0.63;;;;;;;;;;5070430;28;20398;-70
2021/03/11 06:40:20;;;;;;;0.70;0.47;;;;;;;;;;5070537;28;20694;-68
2021/03/11 06:42:47;;;;;;;0.80;0.60;;;;;;;;;;5053178;28;20434;-68
2021/03/11 06:45:19;;;;;;;0.80;0.80;;;;;;;;;;5070946;28;20402;-68
2021/03/11 06:47:45;;;;;;;0.80;0.60;;;;;;;;;;5069981;28;20432;-67
2021/03/11 06:50:11;;;;;;;2.70;2.47;;;;;;;;;;5069536;28;20757;-69
2021/03/11 06:52:37;;;;;;;0.83;0.77;;;;;;;;;;5069322;28;20543;-68
2021/03/11 06:55:05;;;;;;;1.13;1.03;;;;;;;;;;5070141;28;20406;-68
2021/03/11 06:57:35;;;;;;;0.80;0.70;;;;;;;;;;5059850;28;20456;-69
2021/03/11 07:00:04;;;;;;;1.83;1.73;;;;;;;;;;5073623;28;20425;-70
2021/03/11 07:02:30;;;;;;;3.80;1.10;;;;;;;;;;5073528;28;20420;-68
2021/03/11 07:05:11;;;;;;;3.57;0.87;;;;;;;;;;5073585;28;20422;-69
2021/03/11 07:07:37;;;;;;;2.10;1.13;;;;;;;;;;5073952;28;20401;-68
2021/03/11 07:10:03;;;;;;;0.80;0.57;;;;;;;;;;5073238;28;20413;-70
2021/03/11 07:12:48;;;;;;;4.57;0.70;;;;;;;;;;5073366;28;20940;-69
2021/03/11 07:15:15;;;;;;;0.70;0.60;;;;;;;;;;5073869;28;20393;-69
2021/03/11 07:17:41;;;;;;;1.10;0.73;;;;;;;;;;5073424;28;20412;-68
2021/03/11 07:20:08;;;;;;;0.77;0.63;;;;;;;;;;5073948;28;20912;-69
2021/03/11 07:22:34;;;;;;;0.70;0.50;;;;;;;;;;5073424;28;20830;-69
2021/03/11 07:25:01;;;;;;;0.80;0.63;;;;;;;;;;5074121;28;20395;-69
2021/03/11 07:27:39;;;;;;;0.77;0.53;;;;;;;;;;5074241;28;20767;-69
2021/03/11 07:30:06;;;;;;;0.70;0.60;;;;;;;;;;5073869;28;20477;-67
2021/03/11 07:32:33;;;;;;;0.80;0.60;;;;;;;;;;5073682;28;20415;-67
2021/03/11 07:34:59;;;;;;;1.67;1.57;;;;;;;;;;5055556;28;20402;-70
2021/03/11 07:37:27;;;;;;;0.90;0.70;;;;;;;;;;5055572;28;21158;-70
2021/03/11 07:39:54;;;;;;;0.80;0.70;;;;;;;;;;5074088;28;20398;-69
2021/03/11 07:42:20;;;;;;;1.53;0.93;;;;;;;;;;5073506;28;20514;-70
2021/03/11 07:44:46;;;;;;;0.80;0.60;;;;;;;;;;5073519;28;20483;-70
2021/03/11 07:47:13;;;;;;;3.93;1.40;;;;;;;;;;5073032;28;20521;-68
2021/03/11 07:49:39;;;;;;;1.97;0.80;;;;;;;;;;5072931;28;20541;-70
2021/03/11 07:52:06;;;;;;;0.73;0.57;;;;;;;;;;5072574;28;20833;-69
2021/03/11 07:54:33;;;;;;;2.50;0.63;;;;;;;;;;5073419;28;20924;-68
2021/03/11 07:56:59;;;;;;;0.87;0.77;;;;;;;;;;5073260;28;20893;-69
2021/03/11 07:59:25;;;;;;;0.80;0.70;;;;;;;;;;5073526;28;20539;-69
2021/03/11 08:02:09;;;;;;;0.80;0.80;;;;;;;;;;5073396;28;20467;-69
2021/03/11 08:04:36;;;;;;;0.80;0.50;;;;;;;;;;5073827;28;20795;-69
2021/03/11 08:07:21;;;;;;;0.70;0.60;;;;;;;;;;5096895;22;20520;-70
2021/03/11 08:09:51;;;;;;;0.90;0.50;;;;;;;;;;5090140;28;20949;-69
2021/03/11 08:12:43;;;;;;;0.80;0.57;;;;;;;;;;5086353;28;20799;-70
2021/03/11 08:15:15;;;;;;;0.70;0.50;;;;;;;;;;5080384;28;20414;-70
2021/03/11 08:17:46;;;;;;;1.00;0.70;;;;;;;;;;5092806;28;20433;-71
2021/03/11 08:20:21;;;;;;;1.00;0.90;;;;;;;;;;5057892;28;20502;-69
2021/03/11 08:22:53;;;;;;;1.03;0.93;;;;;;;;;;5079128;28;20803;-70
2021/03/11 08:25:25;;;;;;;1.90;1.27;;;;;;;;;;5080194;28;20483;-70
2021/03/11 08:27:52;;;;;;;0.70;0.50;;;;;;;;;;5082900;28;20422;-71
2021/03/11 08:30:36;;;;;;;0.90;0.90;;;;;;;;;;5075509;28;20427;-71
2021/03/11 08:33:02;;;;;;;1.30;0.70;;;;;;;;;;5080451;28;20416;-70
2021/03/11 08:35:28;;;;;;;0.70;0.50;;;;;;;;;;5072172;28;20444;-69
2021/03/11 08:37:55;;;;;;;1.37;1.27;;;;;;;;;;5070280;28;21013;-70
2021/03/11 08:40:34;;;;;;;1.90;1.20;;;;;;;;;;5077085;28;20452;-70
2021/03/11 08:43:00;;;;;;;2.20;0.70;;;;;;;;;;5079582;28;20468;-70
2021/03/11 08:45:49;;;;;;;1.10;0.63;;;;;;;;;;5080897;28;20891;-70
2021/03/11 08:48:17;;;;;;;0.83;0.80;;;;;;;;;;5062791;28;20502;-69
2021/03/11 08:50:47;;;;;;;2.40;0.80;;;;;;;;;;5066591;28;20415;-70
2021/03/11 08:53:33;;;;;;;2.60;0.90;;;;;;;;;;5074289;28;20416;-69
2021/03/11 08:55:59;;;;;;;0.80;0.57;;;;;;;;;;5076308;28;20519;-71
2021/03/11 08:58:25;;;;;;;1.27;1.17;;;;;;;;;;5056806;28;20505;-70
2021/03/11 09:01:02;;;;;;;1.57;1.47;;;;;;;;;;5077217;28;20489;-70
2021/03/11 09:03:40;;;;;;;1.30;0.80;;;;;;;;;;5080854;28;20419;-70
2021/03/11 09:06:06;;;;;;;0.90;0.70;;;;;;;;;;5079276;28;20463;-69
2021/03/11 09:08:36;;;;;;;1.37;1.27;;;;;;;;;;5081057;28;20439;-69
2021/03/11 09:11:13;;;;;;;0.70;0.50;;;;;;;;;;5079356;28;20424;-67
2021/03/11 09:13:40;;;;;;;0.80;0.60;;;;;;;;;;5082929;28;20446;-69
2021/03/11 09:16:06;;;;;;;0.80;0.47;;;;;;;;;;5080865;28;20397;-70
2021/03/11 09:18:32;;;;;;;1.10;1.00;;;;;;;;;;5089585;28;20487;-70
2021/03/11 09:20:59;;;;;;;1.30;1.20;;;;;;;;;;5084473;28;20463;-69
2021/03/11 09:23:34;;;;;;;1.37;1.10;;;;;;;;;;5071347;28;20441;-66
2021/03/11 09:26:00;;;;;;;0.90;0.80;;;;;;;;;;5071487;28;20428;-66
2021/03/11 09:28:26;;;;;;;1.20;1.00;;;;;;;;;;5071214;28;20405;-66
2021/03/11 09:30:52;;;;;;;1.13;1.03;;;;;;;;;;5071158;28;20398;-66
2021/03/11 09:33:20;;;;;;;1.10;1.00;;;;;;;;;;5071701;28;20426;-71
2021/03/11 09:35:47;;;;;;;1.10;0.70;;;;;;;;;;5082034;28;20493;-71
2021/03/11 09:38:18;;;;;;;6.87;4.53;;;;;;;;;;5091629;28;20409;-68
2021/03/11 09:40:45;;;;;;;1.73;1.20;;;;;;;;;;5087099;28;20995;-70
2021/03/11 09:43:16;;;;;;;1.73;1.57;;;;;;;;;;5085282;28;20402;-70
2021/03/11 09:45:46;;;;;;;4.83;4.23;;;;;;;;;;5086320;28;20423;-70
2021/03/11 09:48:15;;;;;;;1.80;1.37;;;;;;;;;;5082671;28;20848;-69
2021/03/11 09:50:49;;;;;;;1.93;1.43;;;;;;;;;;5085454;28;20965;-70
2021/03/11 09:53:15;;;;;;;1.20;0.60;;;;;;;;;;5081630;28;20785;-70
2021/03/11 09:55:41;;;;;;;4.93;1.40;;;;;;;;;;5084062;28;20399;-71
2021/03/11 09:58:13;;;;;;;1.53;0.60;;;;;;;;;;5085698;28;20395;-71
2021/03/11 10:00:41;;;;;;;1.10;0.70;;;;;;;;;;5083767;28;20442;-71
2021/03/11 10:03:14;;;;;;;1.03;0.93;;;;;;;;;;5063516;28;20369;-70
2021/03/11 10:05:40;;;;;;;1.73;1.33;;;;;;;;;;5082556;28;20415;-70
2021/03/11 10:08:06;;;;;;;7.13;1.00;;;;;;;;;;5082703;28;20436;-70
2021/03/11 10:10:34;;;;;;;1.00;0.90;;;;;;;;;;5086444;28;20376;-71
2021/03/11 10:13:00;;;;;;;1.40;1.30;;;;;;;;;;5082787;28;20406;-70
2021/03/11 10:15:25;;;;;;;1.97;1.57;;;;;;;;;;5082503;28;20373;-68
2021/03/11 10:18:10;;;;;;;1.23;0.97;;;;;;;;;;5078348;28;20414;-70
2021/03/11 10:20:36;;;;;;;2.10;0.90;;;;;;;;;;5058096;28;20482;-70
2021/03/11 10:23:20;;;;;;;0.87;0.80;;;;;;;;;;5076884;28;20381;-68
2021/03/11 10:25:46;;;;;;;3.33;1.03;;;;;;;;;;5078611;28;20398;-70
2021/03/11 10:28:12;;;;;;;1.10;0.80;;;;;;;;;;5062317;28;20398;-70
2021/03/11 10:30:40;;;;;;;1.10;1.00;;;;;;;;;;5081134;28;20466;-70
2021/03/11 10:33:06;;;;;;;13.20;1.30;;;;;;;;;;5085226;28;20405;-70
2021/03/11 10:35:33;;;;;;;0.90;0.80;;;;;;;;;;5066441;28;20441;-69
2021/03/11 10:38:35;;;;;;;1.90;1.00;;;;;;;;;;5066781;28;20424;-68
2021/03/11 10:41:12;;;;;;;3.00;1.50;;;;;;;;;;5040729;28;20865;-69
2021/03/11 10:43:38;;;;;;;0.70;0.60;;;;;;;;;;5083088;28;20402;-70
2021/03/11 10:46:04;;;;;;;1.30;0.70;;;;;;;;;;5083643;28;20822;-69
2021/03/11 10:48:30;;;;;;;1.40;0.97;;;;;;;;;;5085508;28;20405;-70
2021/03/11 10:50:58;;;;;;;1.23;0.73;;;;;;;;;;5084275;28;20744;-68
2021/03/11 10:53:38;;;;;;;1.77;1.00;;;;;;;;;;5083684;28;20379;-70
2021/03/11 10:56:07;;;;;;;0.80;0.77;;;;;;;;;;5077738;28;20403;-70
2021/03/11 10:58:33;;;;;;;0.90;0.67;;;;;;;;;;5077911;28;20402;-71
2021/03/11 11:01:09;;;;;;;0.90;0.50;;;;;;;;;;5066120;28;20455;-71
2021/03/11 11:03:36;;;;;;;0.70;0.50;;;;;;;;;;5081576;28;20914;-71
2021/03/11 11:06:03;;;;;;;0.70;0.60;;;;;;;;;;5083761;28;20372;-71
2021/03/11 11:08:29;;;;;;;0.90;0.73;;;;;;;;;;5062054;28;20390;-71
2021/03/11 11:10:55;;;;;;;0.90;0.73;;;;;;;;;;5073986;28;20486;-71
2021/03/11 11:13:21;;;;;;;0.90;0.60;;;;;;;;;;5054133;28;20381;-71
2021/03/11 11:15:47;;;;;;;0.80;0.67;;;;;;;;;;5072823;28;20415;-69
2021/03/11 11:18:13;;;;;;;1.27;1.17;;;;;;;;;;5077346;28;20400;-70
2021/03/11 11:20:39;;;;;;;2.93;0.80;;;;;;;;;;5075506;28;20777;-70
2021/03/11 11:23:05;;;;;;;0.87;0.60;;;;;;;;;;5078345;28;20483;-69
2021/03/11 11:25:31;;;;;;;0.70;0.50;;;;;;;;;;5075781;28;20454;-70
2021/03/11 11:27:58;;;;;;;1.33;1.23;;;;;;;;;;5062339;28;20430;-70
2021/03/11 11:30:24;;;;;;;0.80;0.50;;;;;;;;;;5069939;28;20497;-69
2021/03/11 11:32:51;;;;;;;0.77;0.50;;;;;;;;;;5075519;28;21080;-69
2021/03/11 11:35:17;;;;;;;1.23;1.10;;;;;;;;;;5081495;28;20409;-69
2021/03/11 11:37:44;;;;;;;0.93;0.93;;;;;;;;;;5094177;28;20425;-70
2021/03/11 11:40:11;;;;;;;2.33;1.03;;;;;;;;;;5093363;28;20451;-69
2021/03/11 11:42:37;;;;;;;0.90;0.80;;;;;;;;;;5091864;28;20407;-69
2021/03/11 11:45:04;;;;;;;0.70;0.50;;;;;;;;;;5087718;28;20481;-71
2021/03/11 11:47:30;;;;;;;0.70;0.50;;;;;;;;;;5082513;28;20422;-70
2021/03/11 11:49:56;;;;;;;1.47;0.57;;;;;;;;;;5083725;28;20404;-71
2021/03/11 11:52:22;;;;;;;1.00;0.57;;;;;;;;;;5075509;28;21140;-71
2021/03/11 11:54:48;;;;;;;0.70;0.50;;;;;;;;;;5075893;28;20422;-70
2021/03/11 11:57:14;;;;;;;0.90;0.63;;;;;;;;;;5072943;28;20415;-70
2021/03/11 11:59:40;;;;;;;0.80;0.70;;;;;;;;;;5054072;28;20392;-70
2021/03/11 12:02:06;;;;;;;0.73;0.60;;;;;;;;;;5073088;28;20445;-70
2021/03/11 12:04:32;;;;;;;0.80;0.70;;;;;;;;;;5073562;28;20782;-71
2021/03/11 12:06:58;;;;;;;0.80;0.60;;;;;;;;;;5073161;28;20522;-71
2021/03/11 12:09:24;;;;;;;0.80;0.70;;;;;;;;;;5055229;28;20491;-71
2021/03/11 12:11:50;;;;;;;0.90;0.63;;;;;;;;;;5073156;28;20406;-71
2021/03/11 12:14:16;;;;;;;1.47;0.90;;;;;;;;;;5073053;28;20402;-71
2021/03/11 12:16:43;;;;;;;0.90;0.80;;;;;;;;;;5073240;28;20422;-71
2021/03/11 12:19:09;;;;;;;1.07;0.80;;;;;;;;;;5073100;28;20377;-71
2021/03/11 12:21:35;;;;;;;0.77;0.57;;;;;;;;;;5054605;28;20456;-71
2021/03/11 12:24:02;;;;;;;0.70;0.50;;;;;;;;;;5073090;28;20753;-70
2021/03/11 12:26:28;;;;;;;0.93;0.70;;;;;;;;;;5072998;28;20418;-71
2021/03/11 12:28:54;;;;;;;0.70;0.43;;;;;;;;;;5072970;28;20369;-71
2021/03/11 12:31:20;;;;;;;0.70;0.50;;;;;;;;;;5072751;28;20402;-71
2021/03/11 12:33:49;;;;;;;0.80;0.60;;;;;;;;;;5072944;28;20696;-71
2021/03/11 12:36:15;;;;;;;0.93;0.83;;;;;;;;;;5079776;28;20433;-68
2021/03/11 12:38:42;;;;;;;1.83;1.10;;;;;;;;;;5082282;28;20371;-71
2021/03/11 12:41:08;;;;;;;0.77;0.50;;;;;;;;;;5077164;28;20788;-70
2021/03/11 12:43:34;;;;;;;0.80;0.70;;;;;;;;;;5053477;28;20423;-71
2021/03/11 12:46:00;;;;;;;4.77;0.93;;;;;;;;;;5054414;28;20752;-69
2021/03/11 12:48:26;;;;;;;2.13;0.60;;;;;;;;;;5072734;28;20477;-69
2021/03/11 12:50:53;;;;;;;6.17;2.07;;;;;;;;;;5072195;28;20384;-69
2021/03/11 12:53:19;;;;;;;0.90;0.77;;;;;;;;;;5072505;28;20399;-69
2021/03/11 12:55:46;;;;;;;0.70;0.50;;;;;;;;;;5063242;28;20445;-69
2021/03/11 12:58:12;;;;;;;0.90;0.60;;;;;;;;;;5068403;28;20925;-70
2021/03/11 13:00:39;;;;;;;0.70;0.50;;;;;;;;;;5071765;28;20424;-73
2021/03/11 13:03:05;;;;;;;1.23;1.00;;;;;;;;;;5073480;28;20774;-71
2021/03/11 13:05:31;;;;;;;0.70;0.50;;;;;;;;;;5074761;28;20408;-71
2021/03/11 13:07:57;;;;;;;0.87;0.50;;;;;;;;;;5077167;28;20471;-71
2021/03/11 13:10:24;;;;;;;0.70;0.50;;;;;;;;;;5081339;28;20407;-72
2021/03/11 13:12:50;;;;;;;12.03;1.10;;;;;;;;;;5080900;28;20405;-72
2021/03/11 13:15:19;;;;;;;0.70;0.50;;;;;;;;;;5082516;28;20401;-71
2021/03/11 13:17:46;;;;;;;0.70;0.50;;;;;;;;;;5081492;28;20429;-70
2021/03/11 13:20:12;;;;;;;0.83;0.70;;;;;;;;;;5080130;28;20504;-70
2021/03/11 13:22:38;;;;;;;0.70;0.50;;;;;;;;;;5081624;28;20402;-70
2021/03/11 13:25:05;;;;;;;0.93;0.83;;;;;;;;;;5081332;28;20420;-72
2021/03/11 13:27:31;;;;;;;0.70;0.40;;;;;;;;;;5082172;28;20414;-71
2021/03/11 13:29:57;;;;;;;0.70;0.53;;;;;;;;;;5058739;28;20380;-72
2021/03/11 13:32:23;;;;;;;3.90;0.93;;;;;;;;;;5080248;28;20421;-72
2021/03/11 13:34:51;;;;;;;0.70;0.50;;;;;;;;;;5072484;28;20414;-73
2021/03/11 13:37:17;;;;;;;0.80;0.60;;;;;;;;;;5060808;28;20657;-70
2021/03/11 13:39:43;;;;;;;0.70;0.50;;;;;;;;;;5079071;28;20449;-71
2021/03/11 13:42:09;;;;;;;0.70;0.40;;;;;;;;;;5071403;28;20473;-71
2021/03/11 13:44:36;;;;;;;1.00;0.87;;;;;;;;;;5075648;28;20489;-70
2021/03/11 13:47:02;;;;;;;1.23;0.90;;;;;;;;;;5070520;28;20468;-70
2021/03/11 13:49:28;;;;;;;1.20;0.70;;;;;;;;;;5076237;28;20425;-71
2021/03/11 13:51:53;;;;;;;0.70;0.50;;;;;;;;;;5079343;28;20404;-70
2021/03/11 13:54:19;;;;;;;0.80;0.50;;;;;;;;;;5071828;28;20497;-71
2021/03/11 13:56:45;;;;;;;0.73;0.60;;;;;;;;;;5065655;28;20440;-71
2021/03/11 13:59:11;;;;;;;0.80;0.70;;;;;;;;;;5067714;28;20422;-70
2021/03/11 14:01:37;;;;;;;0.70;0.40;;;;;;;;;;5070428;28;20472;-70
2021/03/11 14:04:03;;;;;;;0.70;0.50;;;;;;;;;;5049089;28;20904;-70
2021/03/11 14:06:29;;;;;;;0.70;0.50;;;;;;;;;;5070168;28;20415;-70
2021/03/11 14:08:56;;;;;;;0.70;0.50;;;;;;;;;;5078630;22;20581;-76
2021/03/11 14:11:22;;;;;;;0.70;0.50;;;;;;;;;;5028803;28;20732;-76
2021/03/11 14:13:48;;;;;;;0.87;0.87;;;;;;;;;;5016066;28;20429;-76
2021/03/11 14:16:14;;;;;;;1.77;0.73;;;;;;;;;;5033680;28;20369;-76
2021/03/11 14:18:43;;;;;;;0.83;0.80;;;;;;;;;;5051479;28;20808;-76
2021/03/11 14:21:09;;;;;;;0.80;0.50;;;;;;;;;;5050942;28;20492;-76
2021/03/11 14:23:37;;;;;;;0.70;0.50;;;;;;;;;;5033253;28;20964;-76
2021/03/11 14:26:03;;;;;;;0.80;0.40;;;;;;;;;;5032905;28;20814;-75
2021/03/11 14:28:29;;;;;;;0.70;0.40;;;;;;;;;;5033276;28;20438;-76
2021/03/11 14:30:55;;;;;;;0.70;0.40;;;;;;;;;;5022498;28;20415;-75
2021/03/11 14:33:21;;;;;;;0.77;0.60;;;;;;;;;;5031168;28;20431;-76
2021/03/11 14:35:47;;;;;;;0.70;0.40;;;;;;;;;;5033864;28;20750;-75
2021/03/11 14:38:16;;;;;;;0.80;0.60;;;;;;;;;;5051440;28;20890;-75
2021/03/11 14:40:41;;;;;;;0.70;0.50;;;;;;;;;;5050850;28;20451;-76
2021/03/11 14:43:09;;;;;;;0.70;0.50;;;;;;;;;;5032978;28;20421;-75
2021/03/11 14:45:35;;;;;;;0.70;0.50;;;;;;;;;;5050735;28;20405;-75
2021/03/11 14:48:01;;;;;;;0.90;0.67;;;;;;;;;;5032692;28;20411;-75
2021/03/11 14:50:27;;;;;;;0.70;0.50;;;;;;;;;;5050662;28;20417;-75